createdAt,value
2023-03-01T00:04:22.069Z,341.03
2023-03-01T00:09:29.287Z,342.17
2023-03-01T00:14:36.458Z,342.37
2023-03-01T00:19:43.639Z,342.31
2023-03-01T00:24:50.845Z,342.62
2023-03-01T00:29:58.001Z,342.67
2023-03-01T00:35:05.194Z,343.08
2023-03-01T00:40:12.670Z,343.02
2023-03-01T00:45:52.620Z,342.93
2023-03-01T00:50:50.918Z,343.08
2023-03-01T00:56:07.618Z,344.16
2023-03-01T01:01:35.301Z,345.29
2023-03-01T01:11:53.596Z,346.15
2023-03-01T01:17:09.538Z,346.83
2023-03-01T01:22:21.451Z,347.62
2023-03-01T01:27:28.071Z,347.82
2023-03-01T01:32:35.269Z,348.89
2023-03-01T01:37:42.459Z,349.16
2023-03-01T01:42:49.673Z,348.89
2023-03-01T01:47:56.846Z,349.50
2023-03-01T01:53:04.000Z,349.75
2023-03-01T01:58:11.220Z,349.76
2023-03-01T02:03:18.475Z,350.05
2023-03-01T02:08:25.559Z,350.43
2023-03-01T02:13:32.813Z,350.61
2023-03-01T02:18:40.040Z,351.29
2023-03-01T02:23:47.239Z,351.18
2023-03-01T02:28:54.470Z,350.94
2023-03-01T02:34:02.001Z,351.56
2023-03-01T02:39:09.263Z,352.11
2023-03-01T02:44:16.521Z,352.74
2023-03-01T02:49:23.854Z,353.71
2023-03-01T02:54:31.309Z,354.14
2023-03-01T02:59:38.970Z,354.14
2023-03-01T03:05:26.154Z,353.88
2023-03-01T03:10:33.561Z,354.54
2023-03-01T03:16:16.327Z,354.68
2023-03-01T03:21:32.631Z,354.65
2023-03-01T03:26:40.435Z,354.90
2023-03-01T03:31:50.920Z,354.89
2023-03-01T03:36:58.406Z,354.79
2023-03-01T03:42:08.283Z,354.65
2023-03-01T03:47:14.479Z,354.81
2023-03-01T03:52:22.028Z,355.17
2023-03-01T03:57:32.749Z,354.84
2023-03-01T04:02:43.441Z,354.63
2023-03-01T04:07:50.320Z,354.84
2023-03-01T04:12:57.830Z,354.93
2023-03-01T04:18:05.229Z,354.37
2023-03-01T04:23:12.467Z,354.46
2023-03-01T04:28:19.818Z,354.29
2023-03-01T04:33:27.434Z,354.28
2023-03-01T04:38:34.863Z,355.14
2023-03-01T04:43:42.222Z,354.82
2023-03-01T04:48:49.551Z,354.99
2023-03-01T04:53:56.832Z,355.17
2023-03-01T04:59:07.665Z,355.41
2023-03-01T05:04:15.232Z,356.02
2023-03-01T05:09:22.568Z,356.45
2023-03-01T05:14:29.961Z,356.96
2023-03-01T05:19:37.422Z,357.08
2023-03-01T05:24:44.792Z,357.26
2023-03-01T05:30:12.712Z,357.24
2023-03-01T05:35:29.764Z,357.65
2023-03-01T05:40:30.868Z,358.03
2023-03-01T05:45:38.202Z,358.22
2023-03-01T05:50:45.474Z,358.70
2023-03-01T05:55:52.758Z,359.06
2023-03-01T06:01:00.203Z,358.91
2023-03-01T06:06:07.558Z,359.30
2023-03-01T06:11:18.829Z,358.81
2023-03-01T06:16:26.393Z,359.02
2023-03-01T06:21:38.747Z,358.86
2023-03-01T06:26:52.544Z,358.61
2023-03-01T06:32:35.849Z,359.06
2023-03-01T06:37:43.104Z,359.10
2023-03-01T06:42:57.483Z,359.05
2023-03-01T06:48:05.023Z,358.79
2023-03-01T06:53:33.829Z,359.03
2023-03-01T06:58:29.108Z,358.95
2023-03-01T07:03:39.429Z,359.14
2023-03-01T07:08:47.611Z,359.05
2023-03-01T07:13:55.417Z,359.10
2023-03-01T07:19:11.961Z,358.96
2023-03-01T07:24:19.492Z,358.63
2023-03-01T07:29:26.985Z,358.83
2023-03-01T07:34:36.775Z,359.01
2023-03-01T07:39:42.592Z,359.53
2023-03-01T07:44:50.117Z,359.44
2023-03-01T07:49:57.395Z,359.96
2023-03-01T07:55:11.401Z,360.16
2023-03-01T08:00:18.778Z,360.57
2023-03-01T08:05:26.314Z,360.65
2023-03-01T08:10:33.671Z,360.87
2023-03-01T08:15:41.044Z,360.62
2023-03-01T08:20:48.362Z,360.59
2023-03-01T08:25:55.728Z,360.49
2023-03-01T08:31:04.203Z,360.53
2023-03-01T08:36:11.653Z,361.10
2023-03-01T08:41:19.099Z,361.47
2023-03-01T08:46:27.509Z,361.54
2023-03-01T08:51:39.656Z,361.31
2023-03-01T08:56:47.056Z,361.37
2023-03-01T09:01:54.424Z,361.98
2023-03-01T09:07:01.751Z,362.34
2023-03-01T09:12:12.265Z,362.47
2023-03-01T09:17:17.331Z,362.48
2023-03-01T09:22:24.674Z,363.27
2023-03-01T09:27:31.960Z,363.96
2023-03-01T09:32:39.358Z,364.59
2023-03-01T09:37:46.877Z,364.88
2023-03-01T09:42:54.418Z,365.11
2023-03-01T09:48:01.800Z,365.47
2023-03-01T09:53:09.459Z,365.51
2023-03-01T09:58:17.133Z,365.96
2023-03-01T10:03:24.670Z,366.07
2023-03-01T10:08:32.330Z,365.73
2023-03-01T10:13:39.712Z,366.21
2023-03-01T10:18:47.178Z,366.18
2023-03-01T10:23:54.818Z,366.61
2023-03-01T10:29:02.266Z,366.92
2023-03-01T10:34:31.330Z,368.18
2023-03-01T10:39:22.842Z,368.25
2023-03-01T10:44:45.453Z,368.51
2023-03-01T10:49:52.766Z,368.80
2023-03-01T10:55:00.167Z,368.63
2023-03-01T11:00:07.572Z,369.16
2023-03-01T11:05:14.993Z,369.27
2023-03-01T11:10:25.330Z,369.02
2023-03-01T11:15:31.196Z,369.93
2023-03-01T11:20:40.213Z,370.79
2023-03-01T11:25:47.646Z,370.76
2023-03-01T11:31:07.219Z,370.74
2023-03-01T11:36:02.687Z,371.85
2023-03-01T11:41:10.047Z,372.71
2023-03-01T11:46:21.139Z,373.08
2023-03-01T11:51:28.578Z,373.68
2023-03-01T11:56:35.972Z,374.23
2023-03-01T12:01:43.690Z,374.59
2023-03-01T12:06:56.666Z,373.35
2023-03-01T12:12:02.218Z,375.06
2023-03-01T12:17:09.741Z,374.89
2023-03-01T12:22:17.123Z,375.84
2023-03-01T12:27:24.847Z,375.78
2023-03-01T12:32:36.599Z,376.72
2023-03-01T12:37:44.087Z,377.24
2023-03-01T12:42:51.414Z,378.39
2023-03-01T12:47:58.746Z,378.02
2023-03-01T12:53:06.015Z,377.69
2023-03-01T12:58:13.660Z,377.41
2023-03-01T13:03:21.101Z,378.43
2023-03-01T13:08:32.527Z,378.02
2023-03-01T13:13:40.147Z,378.26
2023-03-01T13:18:53.147Z,378.16
2023-03-01T13:24:00.532Z,377.81
2023-03-01T13:29:08.114Z,377.71
2023-03-01T13:34:20.204Z,376.99
2023-03-01T13:39:27.544Z,377.88
2023-03-01T13:44:34.843Z,377.90
2023-03-01T13:49:46.496Z,380.12
2023-03-01T13:54:52.947Z,379.06
2023-03-01T14:00:00.466Z,379.61
2023-03-01T14:05:07.920Z,379.69
2023-03-01T14:10:15.267Z,380.58
2023-03-01T14:15:22.595Z,380.42
2023-03-01T14:20:30.186Z,380.50
2023-03-01T14:25:37.517Z,380.65
2023-03-01T14:30:44.952Z,380.42
2023-03-01T14:35:52.706Z,380.81
2023-03-01T14:41:06.670Z,380.93
2023-03-01T14:46:13.078Z,380.61
2023-03-01T14:51:20.451Z,381.09
2023-03-01T14:56:27.856Z,380.12
2023-03-01T15:01:35.288Z,380.90
2023-03-01T15:06:42.667Z,381.11
2023-03-01T15:11:49.933Z,380.97
2023-03-01T15:16:58.928Z,381.16
2023-03-01T15:22:12.273Z,381.07
2023-03-01T15:27:28.457Z,380.75
2023-03-01T15:32:31.647Z,380.54
2023-03-01T15:37:39.269Z,380.09
2023-03-01T15:42:47.077Z,380.29
2023-03-01T15:47:54.596Z,380.52
2023-03-01T15:53:01.889Z,380.51
2023-03-01T15:58:09.303Z,380.18
2023-03-01T16:03:16.917Z,379.78
2023-03-01T16:08:24.490Z,380.09
2023-03-01T16:13:31.932Z,380.27
2023-03-01T16:18:39.374Z,379.78
2023-03-01T16:23:46.786Z,379.90
2023-03-01T16:28:54.151Z,379.57
2023-03-01T16:34:01.698Z,379.79
2023-03-01T16:39:10.004Z,378.86
2023-03-01T16:44:27.269Z,378.07
2023-03-01T16:49:38.016Z,377.93
2023-03-01T16:54:51.825Z,378.22
2023-03-01T17:00:07.055Z,377.87
2023-03-01T17:05:14.975Z,377.95
2023-03-01T17:10:25.983Z,377.00
2023-03-01T17:15:33.515Z,376.94
2023-03-01T17:20:41.189Z,376.25
2023-03-01T17:25:49.055Z,376.81
2023-03-01T17:30:56.560Z,376.22
2023-03-01T17:36:04.407Z,376.48
2023-03-01T17:41:22.642Z,376.98
2023-03-01T17:46:24.901Z,375.31
2023-03-01T17:51:32.689Z,374.85
2023-03-01T17:56:40.173Z,374.73
2023-03-01T18:01:48.932Z,374.21
2023-03-01T18:06:57.193Z,374.68
2023-03-01T18:12:04.753Z,374.87
2023-03-01T18:17:12.498Z,374.90
2023-03-01T18:22:24.175Z,374.36
2023-03-01T18:27:36.901Z,373.62
2023-03-01T18:32:44.330Z,374.31
2023-03-01T18:37:52.270Z,374.76
2023-03-01T18:43:00.230Z,375.50
2023-03-01T18:48:08.745Z,375.93
2023-03-01T18:53:16.761Z,376.88
2023-03-01T18:58:24.496Z,376.88
2023-03-01T19:03:32.796Z,376.67
2023-03-01T19:08:40.531Z,377.16
2023-03-01T19:13:48.355Z,377.47
2023-03-01T19:18:57.270Z,377.63
2023-03-01T19:24:04.990Z,378.42
2023-03-01T19:29:12.883Z,378.57
2023-03-01T19:34:29.420Z,378.69
2023-03-01T19:39:28.261Z,379.31
2023-03-01T19:44:35.897Z,379.21
2023-03-01T19:49:43.661Z,380.00
2023-03-01T19:54:53.816Z,380.19
2023-03-01T20:00:00.170Z,380.36
2023-03-01T20:05:07.491Z,380.07
2023-03-01T20:10:15.333Z,380.54
2023-03-01T20:15:22.871Z,380.85
2023-03-01T20:20:30.502Z,381.26
2023-03-01T20:25:38.079Z,381.60
2023-03-01T20:30:45.745Z,382.35
2023-03-01T20:35:55.082Z,382.30
2023-03-01T20:41:00.942Z,381.87
2023-03-01T20:46:09.074Z,382.08
2023-03-01T20:51:16.462Z,382.95
2023-03-01T20:56:24.086Z,382.95
2023-03-01T21:01:31.630Z,382.95
2023-03-01T21:06:38.846Z,383.74
2023-03-01T21:11:46.113Z,384.51
2023-03-01T21:16:53.558Z,384.45
2023-03-01T21:22:00.666Z,384.58
2023-03-01T21:27:07.912Z,385.04
2023-03-01T21:32:15.346Z,385.83
2023-03-01T21:37:22.267Z,385.87
2023-03-01T21:42:29.544Z,386.34
2023-03-01T21:47:36.772Z,386.37
2023-03-01T21:52:43.926Z,386.49
2023-03-01T21:57:51.086Z,387.07
2023-03-01T22:02:58.400Z,387.56
2023-03-01T22:08:05.519Z,388.29
2023-03-01T22:13:12.857Z,389.00
2023-03-01T22:18:20.065Z,389.16
2023-03-01T22:23:27.217Z,388.71
2023-03-01T22:28:34.429Z,389.01
2023-03-01T22:33:41.746Z,388.73
2023-03-01T22:38:49.109Z,389.24
2023-03-01T22:43:56.296Z,389.40
2023-03-01T22:49:03.503Z,389.80
2023-03-01T22:54:10.654Z,389.23
2023-03-01T22:59:17.948Z,389.17
2023-03-01T23:04:25.168Z,389.46
2023-03-01T23:09:32.368Z,389.52
2023-03-01T23:14:39.654Z,390.18
2023-03-01T23:19:46.904Z,390.35
2023-03-01T23:24:54.051Z,390.37
2023-03-01T23:30:01.249Z,391.18
2023-03-01T23:35:08.476Z,391.00
2023-03-01T23:40:15.629Z,391.25
2023-03-01T23:45:22.901Z,391.85
2023-03-01T23:50:30.121Z,392.23
2023-03-01T23:55:37.288Z,392.19
